createdAt,value
2018-11-29T00:00:49.018Z,71.07
2018-11-29T00:01:53.169Z,70.37
2018-11-29T00:02:57.691Z,74.55
2018-11-29T00:04:02.149Z,69.27
2018-11-29T00:05:07.068Z,68.47
2018-11-29T00:06:11.146Z,69.75
2018-11-29T00:07:15.375Z,65.03
2018-11-29T00:08:19.570Z,66.40
2018-11-29T00:09:23.718Z,72.75
2018-11-29T00:10:27.798Z,69.07
2018-11-29T00:11:31.955Z,69.55
2018-11-29T00:12:36.129Z,68.45
2018-11-29T00:13:40.267Z,62.73
2018-11-29T00:14:44.388Z,66.50
2018-11-29T00:15:48.602Z,54.20
2018-11-29T00:16:52.629Z,63.00
2018-11-29T00:17:56.729Z,60.80
2018-11-29T00:19:01.013Z,69.50
2018-11-29T00:20:07.402Z,68.87
2018-11-29T00:21:11.545Z,62.05
2018-11-29T00:22:15.558Z,70.12
2018-11-29T00:23:19.624Z,64.82
2018-11-29T00:24:23.852Z,61.37
2018-11-29T00:25:27.962Z,57.30
2018-11-29T00:26:32.143Z,58.02
2018-11-29T00:27:36.197Z,57.15
2018-11-29T00:28:40.282Z,57.55
2018-11-29T00:29:44.537Z,61.05
2018-11-29T00:30:48.656Z,62.33
2018-11-29T00:31:52.809Z,59.13
2018-11-29T00:32:57.215Z,62.17
2018-11-29T00:34:01.369Z,61.02
2018-11-29T00:35:06.936Z,59.10
2018-11-29T00:36:11.284Z,68.42
2018-11-29T00:37:15.405Z,67.08
2018-11-29T00:38:19.640Z,68.33
2018-11-29T00:39:23.895Z,61.60
2018-11-29T00:40:28.022Z,63.78
2018-11-29T00:41:32.096Z,59.33
2018-11-29T00:42:36.273Z,60.90
2018-11-29T00:43:40.404Z,54.75
2018-11-29T00:44:44.543Z,61.90
2018-11-29T00:45:48.746Z,65.35
2018-11-29T00:46:52.801Z,68.35
2018-11-29T00:47:56.817Z,67.67
2018-11-29T00:49:00.955Z,60.63
2018-11-29T00:50:06.192Z,65.32
2018-11-29T00:51:10.362Z,63.28
2018-11-29T00:52:14.456Z,54.60
2018-11-29T00:53:19.684Z,64.77
2018-11-29T00:54:23.677Z,58.70
2018-11-29T00:55:32.815Z,57.65
2018-11-29T00:56:36.889Z,60.20
2018-11-29T00:57:41.056Z,55.88
2018-11-29T00:58:45.196Z,59.38
2018-11-29T00:59:49.230Z,50.78
2018-11-29T01:00:53.265Z,59.15
2018-11-29T01:02:00.257Z,56.08
2018-11-29T01:03:04.381Z,59.40
2018-11-29T01:04:08.504Z,57.15
2018-11-29T01:05:12.658Z,50.78
2018-11-29T01:06:16.713Z,51.73
2018-11-29T01:07:20.997Z,58.00
2018-11-29T01:08:25.247Z,58.17
2018-11-29T01:09:29.467Z,55.35
2018-11-29T01:10:33.505Z,61.25
2018-11-29T01:11:37.594Z,58.00
2018-11-29T01:12:41.861Z,63.23
2018-11-29T01:13:45.967Z,55.55
2018-11-29T01:14:50.102Z,54.40
2018-11-29T01:15:54.166Z,58.85
2018-11-29T01:16:58.202Z,58.73
2018-11-29T01:18:02.343Z,62.53
2018-11-29T01:19:06.664Z,53.48
2018-11-29T01:20:14.545Z,60.60
2018-11-29T01:21:18.559Z,56.20
2018-11-29T01:22:22.581Z,52.17
2018-11-29T01:23:26.683Z,51.35
2018-11-29T01:24:30.773Z,56.28
2018-11-29T01:25:34.828Z,58.92
2018-11-29T01:26:38.965Z,57.27
2018-11-29T01:27:43.833Z,58.25
2018-11-29T01:28:48.044Z,57.13
2018-11-29T01:29:52.113Z,40.00
2018-11-29T01:30:56.196Z,51.23
2018-11-29T01:32:00.253Z,53.20
2018-11-29T01:33:04.345Z,48.10
2018-11-29T01:34:08.448Z,52.23
2018-11-29T01:35:14.790Z,46.98
2018-11-29T01:36:19.140Z,48.65
2018-11-29T01:37:23.201Z,51.92
2018-11-29T01:38:27.280Z,44.83
2018-11-29T01:39:31.429Z,45.75
2018-11-29T01:40:35.508Z,41.33
2018-11-29T01:41:39.512Z,46.60
2018-11-29T01:42:43.996Z,44.88
2018-11-29T01:43:48.020Z,46.68
2018-11-29T01:44:52.198Z,47.27
2018-11-29T01:45:56.205Z,47.30
2018-11-29T01:47:00.224Z,45.40
2018-11-29T01:48:04.324Z,49.67
2018-11-29T01:49:08.456Z,49.27
2018-11-29T01:50:12.548Z,49.03
2018-11-29T01:51:16.550Z,48.42
2018-11-29T01:52:20.605Z,51.90
2018-11-29T01:53:24.653Z,55.52
2018-11-29T01:54:28.757Z,48.98
2018-11-29T01:55:33.002Z,49.60
2018-11-29T01:56:37.044Z,50.80
2018-11-29T01:57:41.129Z,49.95
2018-11-29T01:58:45.312Z,50.00
2018-11-29T01:59:49.348Z,49.35
2018-11-29T02:00:53.417Z,59.83
2018-11-29T02:01:57.459Z,61.18
2018-11-29T02:03:01.540Z,51.10
2018-11-29T02:04:06.039Z,56.20
2018-11-29T02:05:11.205Z,59.98
2018-11-29T02:06:15.377Z,59.53
2018-11-29T02:07:19.376Z,59.18
2018-11-29T02:08:23.504Z,55.03
2018-11-29T02:09:27.558Z,55.15
2018-11-29T02:10:36.885Z,55.70
2018-11-29T02:11:41.122Z,45.48
2018-11-29T02:12:51.761Z,56.13
2018-11-29T02:13:55.837Z,51.68
2018-11-29T02:14:59.916Z,59.70
2018-11-29T02:16:04.120Z,59.08
2018-11-29T02:17:08.290Z,62.73
2018-11-29T02:18:12.434Z,64.85
2018-11-29T02:19:16.591Z,52.55
2018-11-29T02:20:20.920Z,53.02
2018-11-29T02:21:25.440Z,50.90
2018-11-29T02:22:29.572Z,46.18
2018-11-29T02:23:33.689Z,59.23
2018-11-29T02:24:37.717Z,59.83
2018-11-29T02:25:41.665Z,68.90
2018-11-29T02:26:45.709Z,65.40
2018-11-29T02:27:49.855Z,62.50
2018-11-29T02:28:53.926Z,67.32
2018-11-29T02:29:57.930Z,59.90
2018-11-29T02:31:01.990Z,49.00
2018-11-29T02:32:06.060Z,62.45
2018-11-29T02:33:10.105Z,70.37
2018-11-29T02:34:14.145Z,61.35
2018-11-29T02:35:18.315Z,60.43
2018-11-29T02:36:22.518Z,58.78
2018-11-29T02:37:26.659Z,71.07
2018-11-29T02:38:30.917Z,58.05
2018-11-29T02:39:35.004Z,59.05
2018-11-29T02:40:39.247Z,58.75
2018-11-29T02:41:43.322Z,57.38
2018-11-29T02:42:48.534Z,60.05
2018-11-29T02:43:52.772Z,56.25
2018-11-29T02:44:56.860Z,66.30
2018-11-29T02:46:01.025Z,60.75
2018-11-29T02:47:05.079Z,53.23
2018-11-29T02:48:09.212Z,59.20
2018-11-29T02:49:13.286Z,61.90
2018-11-29T02:50:17.399Z,65.52
2018-11-29T02:51:21.478Z,64.80
2018-11-29T02:52:25.604Z,55.43
2018-11-29T02:53:29.697Z,70.57
2018-11-29T02:54:33.789Z,61.75
2018-11-29T02:55:37.791Z,63.10
2018-11-29T02:56:46.048Z,63.25
2018-11-29T02:57:50.141Z,61.92
2018-11-29T02:58:54.166Z,54.00
2018-11-29T02:59:58.369Z,68.37
2018-11-29T03:01:05.509Z,60.85
2018-11-29T03:02:09.525Z,65.72
2018-11-29T03:03:13.697Z,65.65
2018-11-29T03:04:18.044Z,58.98
2018-11-29T03:05:22.220Z,63.35
2018-11-29T03:06:26.325Z,67.32
2018-11-29T03:07:30.328Z,71.40
2018-11-29T03:08:34.470Z,67.80
2018-11-29T03:09:38.542Z,66.17
2018-11-29T03:10:42.633Z,64.58
2018-11-29T03:11:46.767Z,64.12
2018-11-29T03:12:50.892Z,62.15
2018-11-29T03:13:54.892Z,67.95
2018-11-29T03:14:58.877Z,66.05
2018-11-29T03:16:02.961Z,59.77
2018-11-29T03:17:07.375Z,64.70
2018-11-29T03:18:13.341Z,63.60
2018-11-29T03:19:17.464Z,67.90
2018-11-29T03:20:21.504Z,65.05
2018-11-29T03:21:25.593Z,59.38
2018-11-29T03:22:29.690Z,64.87
2018-11-29T03:23:33.738Z,70.83
2018-11-29T03:24:37.800Z,47.62
2018-11-29T03:25:41.961Z,52.73
2018-11-29T03:26:46.016Z,54.98
2018-11-29T03:27:50.352Z,55.80
2018-11-29T03:28:54.469Z,49.67
2018-11-29T03:29:58.589Z,48.10
2018-11-29T03:31:02.615Z,46.25
2018-11-29T03:32:07.050Z,44.60
2018-11-29T03:33:11.254Z,44.42
2018-11-29T03:34:15.453Z,49.67
2018-11-29T03:35:19.617Z,44.83
2018-11-29T03:36:23.658Z,49.45
2018-11-29T03:37:27.805Z,50.90
2018-11-29T03:38:31.877Z,53.15
2018-11-29T03:39:36.000Z,54.83
2018-11-29T03:40:40.217Z,48.80
2018-11-29T03:41:44.365Z,41.50
2018-11-29T03:42:48.523Z,55.65
2018-11-29T03:43:52.681Z,48.55
2018-11-29T03:44:56.717Z,44.65
2018-11-29T03:46:00.780Z,39.53
2018-11-29T03:47:04.838Z,47.93
2018-11-29T03:48:09.088Z,48.63
2018-11-29T03:49:13.073Z,46.50
2018-11-29T03:50:17.980Z,41.80
2018-11-29T03:51:22.029Z,48.83
2018-11-29T03:52:26.038Z,45.33
2018-11-29T03:53:30.244Z,49.58
2018-11-29T03:54:34.444Z,54.03
2018-11-29T03:55:38.529Z,45.65
2018-11-29T03:56:42.725Z,52.67
2018-11-29T03:57:46.842Z,47.98
2018-11-29T03:58:51.049Z,49.85
2018-11-29T03:59:55.199Z,48.70
2018-11-29T04:00:59.395Z,52.20
2018-11-29T04:02:03.683Z,43.20
2018-11-29T04:03:08.080Z,45.65
2018-11-29T04:04:12.141Z,42.58
2018-11-29T04:05:16.299Z,40.45
2018-11-29T04:06:20.369Z,50.05
2018-11-29T04:07:24.435Z,46.95
2018-11-29T04:08:28.462Z,45.95
2018-11-29T04:09:32.578Z,50.10
2018-11-29T04:10:36.609Z,49.93
2018-11-29T04:11:40.574Z,50.60
2018-11-29T04:12:44.680Z,51.58
2018-11-29T04:13:48.730Z,45.48
2018-11-29T04:14:52.871Z,44.20
2018-11-29T04:15:56.960Z,41.20
2018-11-29T04:17:01.016Z,43.45
2018-11-29T04:18:05.577Z,46.50
2018-11-29T04:19:09.723Z,45.88
2018-11-29T04:20:16.616Z,48.05
2018-11-29T04:21:20.632Z,44.98
2018-11-29T04:22:24.657Z,41.18
2018-11-29T04:23:28.697Z,44.80
2018-11-29T04:24:32.653Z,46.65
2018-11-29T04:25:36.804Z,49.55
2018-11-29T04:26:40.958Z,48.02
2018-11-29T04:27:45.041Z,45.25
2018-11-29T04:28:49.105Z,39.83
2018-11-29T04:29:53.120Z,45.92
2018-11-29T04:30:57.265Z,46.18
2018-11-29T04:32:01.382Z,43.17
2018-11-29T04:33:05.649Z,41.68
2018-11-29T04:34:09.676Z,44.27
2018-11-29T04:35:14.425Z,44.93
2018-11-29T04:36:18.528Z,42.33
2018-11-29T04:37:22.679Z,40.88
2018-11-29T04:38:26.801Z,45.50
2018-11-29T04:39:30.817Z,46.37
2018-11-29T04:40:34.930Z,44.77
2018-11-29T04:41:39.022Z,38.88
2018-11-29T04:42:43.079Z,37.63
2018-11-29T04:43:47.229Z,39.15
2018-11-29T04:44:57.329Z,42.90
2018-11-29T04:46:43.862Z,40.30
2018-11-29T04:47:48.102Z,46.50
2018-11-29T04:48:52.178Z,46.13
2018-11-29T04:49:56.221Z,42.20
2018-11-29T04:51:00.337Z,38.78
2018-11-29T04:52:04.525Z,46.23
2018-11-29T04:53:08.609Z,44.58
2018-11-29T04:54:12.814Z,35.13
2018-11-29T04:55:16.826Z,40.30
2018-11-29T04:56:20.853Z,28.07
2018-11-29T04:57:24.902Z,37.35
2018-11-29T04:58:29.043Z,40.17
2018-11-29T04:59:33.132Z,39.85
2018-11-29T05:00:37.140Z,34.50
2018-11-29T05:01:41.264Z,46.18
2018-11-29T05:02:45.435Z,42.20
2018-11-29T05:03:50.375Z,49.25
2018-11-29T05:04:54.445Z,44.23
2018-11-29T05:05:58.613Z,45.05
2018-11-29T05:07:02.698Z,44.27
2018-11-29T05:08:07.208Z,43.02
2018-11-29T05:09:12.040Z,47.80
2018-11-29T05:10:17.860Z,40.92
2018-11-29T05:11:21.953Z,33.60
2018-11-29T05:12:26.014Z,42.70
2018-11-29T05:13:30.085Z,40.90
2018-11-29T05:14:34.229Z,37.65
2018-11-29T05:15:38.312Z,39.30
2018-11-29T05:16:42.520Z,41.53
2018-11-29T05:17:46.815Z,36.88
2018-11-29T05:18:50.941Z,43.37
2018-11-29T05:19:54.928Z,43.55
2018-11-29T05:20:58.963Z,38.53
2018-11-29T05:22:04.201Z,41.83
2018-11-29T05:23:08.323Z,40.50
2018-11-29T05:24:12.885Z,40.43
2018-11-29T05:25:22.223Z,40.95
2018-11-29T05:26:26.345Z,41.02
2018-11-29T05:27:30.508Z,33.78
2018-11-29T05:28:34.871Z,39.73
2018-11-29T05:29:39.117Z,38.28
2018-11-29T05:30:43.320Z,35.83
2018-11-29T05:31:47.588Z,38.50
2018-11-29T05:32:51.637Z,38.67
2018-11-29T05:33:55.648Z,42.53
2018-11-29T05:34:59.768Z,41.20
2018-11-29T05:36:08.937Z,31.00
2018-11-29T05:37:13.022Z,39.65
2018-11-29T05:38:17.164Z,44.50
2018-11-29T05:39:21.325Z,38.02
2018-11-29T05:40:25.634Z,37.13
2018-11-29T05:41:29.833Z,41.73
2018-11-29T05:42:33.998Z,40.43
2018-11-29T05:43:38.153Z,38.45
2018-11-29T05:44:42.364Z,36.17
2018-11-29T05:45:46.602Z,36.53
2018-11-29T05:46:50.767Z,32.88
2018-11-29T05:47:54.821Z,34.75
2018-11-29T05:48:59.081Z,41.55
2018-11-29T05:50:03.209Z,34.50
2018-11-29T05:51:07.540Z,35.05
2018-11-29T05:52:11.740Z,39.80
2018-11-29T05:53:15.822Z,37.65
2018-11-29T05:54:19.957Z,32.20
2018-11-29T05:55:24.081Z,37.53
2018-11-29T05:56:28.297Z,37.63
2018-11-29T05:57:32.583Z,34.00
2018-11-29T05:58:36.724Z,40.70
2018-11-29T05:59:40.739Z,35.83
2018-11-29T06:00:47.878Z,38.28
2018-11-29T06:01:53.199Z,40.38
2018-11-29T06:02:57.531Z,39.98
2018-11-29T06:04:01.862Z,39.03
2018-11-29T06:05:06.796Z,35.52
2018-11-29T06:06:10.898Z,37.17
2018-11-29T06:08:24.383Z,40.45
2018-11-29T06:09:28.607Z,40.50
2018-11-29T06:10:32.841Z,30.20
2018-11-29T06:11:37.406Z,39.45
2018-11-29T06:12:41.495Z,37.45
2018-11-29T06:13:45.680Z,41.98
2018-11-29T06:14:50.112Z,41.63
2018-11-29T06:15:54.257Z,33.05
2018-11-29T06:16:58.563Z,32.93
2018-11-29T06:18:02.703Z,37.08
2018-11-29T06:19:08.370Z,28.90
2018-11-29T06:20:17.637Z,31.75
2018-11-29T06:21:21.712Z,35.03
2018-11-29T06:22:25.980Z,35.52
2018-11-29T06:23:30.287Z,34.15
2018-11-29T06:24:39.459Z,37.17
2018-11-29T06:25:43.799Z,39.05
2018-11-29T06:26:48.138Z,37.38
2018-11-29T06:27:52.770Z,38.58
2018-11-29T06:28:57.724Z,35.52
2018-11-29T06:30:02.079Z,35.13
2018-11-29T06:31:06.529Z,31.30
2018-11-29T06:32:10.943Z,25.95
2018-11-29T06:33:15.033Z,31.07
2018-11-29T06:34:19.306Z,31.70
2018-11-29T06:35:23.505Z,36.15
2018-11-29T06:36:27.636Z,36.98
2018-11-29T06:37:31.789Z,29.57
2018-11-29T06:38:35.999Z,36.50
2018-11-29T06:39:40.228Z,34.33
2018-11-29T06:40:44.460Z,33.05
2018-11-29T06:41:48.646Z,31.95
2018-11-29T06:42:52.888Z,30.77
2018-11-29T06:43:56.944Z,32.73
2018-11-29T06:45:01.141Z,32.70
2018-11-29T06:46:05.585Z,31.37
2018-11-29T06:47:09.829Z,29.72
2018-11-29T06:48:13.988Z,30.25
2018-11-29T06:49:18.176Z,34.15
2018-11-29T06:50:22.347Z,31.75
2018-11-29T06:51:26.504Z,28.27
2018-11-29T06:52:30.542Z,28.30
2018-11-29T06:53:39.854Z,28.85
2018-11-29T06:54:44.016Z,32.00
2018-11-29T06:55:48.201Z,26.90
2018-11-29T06:56:52.317Z,26.33
2018-11-29T06:57:56.384Z,28.17
2018-11-29T06:59:00.473Z,33.05
2018-11-29T07:00:06.988Z,35.50
2018-11-29T07:01:11.264Z,29.60
2018-11-29T07:02:15.433Z,33.55
2018-11-29T07:03:19.672Z,34.30
2018-11-29T07:04:23.836Z,29.72
2018-11-29T07:05:27.890Z,27.75
2018-11-29T07:06:32.060Z,33.85
2018-11-29T07:07:36.181Z,32.28
2018-11-29T07:08:40.176Z,30.30
2018-11-29T07:09:44.597Z,23.77
2018-11-29T07:10:48.764Z,27.75
2018-11-29T07:11:52.988Z,33.40
2018-11-29T07:12:57.084Z,30.05
2018-11-29T07:14:01.314Z,29.05
2018-11-29T07:15:07.064Z,29.57
2018-11-29T07:16:11.313Z,29.07
2018-11-29T07:17:15.483Z,22.75
2018-11-29T07:18:19.831Z,27.00
2018-11-29T07:19:24.009Z,27.50
2018-11-29T07:20:33.364Z,27.52
2018-11-29T07:21:55.885Z,20.92
2018-11-29T07:23:00.044Z,16.52
2018-11-29T07:24:04.231Z,22.07
2018-11-29T07:25:09.247Z,20.72
2018-11-29T07:26:13.368Z,25.05
2018-11-29T07:27:17.497Z,27.95
2018-11-29T07:28:21.621Z,26.57
2018-11-29T07:29:26.095Z,27.25
2018-11-29T07:30:30.285Z,28.60
2018-11-29T07:31:34.443Z,27.65
2018-11-29T07:32:38.693Z,23.42
2018-11-29T07:33:42.873Z,28.20
2018-11-29T07:34:47.215Z,24.98
2018-11-29T07:35:51.379Z,23.95
2018-11-29T07:36:55.520Z,21.57
2018-11-29T07:37:59.741Z,18.57
2018-11-29T07:39:05.101Z,21.68
2018-11-29T07:40:11.784Z,20.10
2018-11-29T07:41:15.990Z,18.73
2018-11-29T07:42:20.227Z,23.32
2018-11-29T07:43:24.298Z,23.18
2018-11-29T07:44:28.515Z,23.55
2018-11-29T07:45:32.663Z,21.48
2018-11-29T07:46:36.905Z,18.73
2018-11-29T07:47:41.180Z,22.62
2018-11-29T07:48:45.341Z,18.87
2018-11-29T07:49:49.625Z,20.45
2018-11-29T07:50:53.833Z,20.72
2018-11-29T07:51:58.022Z,23.38
2018-11-29T07:53:03.030Z,22.80
2018-11-29T07:54:07.317Z,26.65
2018-11-29T07:55:13.927Z,25.62
2018-11-29T07:56:18.138Z,13.93
2018-11-29T07:57:22.367Z,21.07
2018-11-29T07:58:26.526Z,21.30
2018-11-29T07:59:30.639Z,21.87
2018-11-29T08:00:34.843Z,18.57
2018-11-29T08:01:38.999Z,22.60
2018-11-29T08:02:43.218Z,26.27
2018-11-29T08:03:47.438Z,18.65
2018-11-29T08:04:51.689Z,21.42
2018-11-29T08:05:59.804Z,18.48
2018-11-29T08:07:03.969Z,17.48
2018-11-29T08:08:08.237Z,20.02
2018-11-29T08:09:12.430Z,17.57
2018-11-29T08:10:18.290Z,13.55
2018-11-29T08:11:22.527Z,16.93
2018-11-29T08:12:26.782Z,16.05
2018-11-29T08:13:30.937Z,17.52
2018-11-29T08:14:35.095Z,17.55
2018-11-29T08:15:43.049Z,15.98
2018-11-29T08:16:47.329Z,17.80
2018-11-29T08:17:51.420Z,13.50
2018-11-29T08:18:55.455Z,12.68
2018-11-29T08:19:59.577Z,21.27
2018-11-29T08:21:06.514Z,18.90
2018-11-29T08:22:10.845Z,13.83
2018-11-29T08:23:15.028Z,12.80
2018-11-29T08:24:24.122Z,15.98
2018-11-29T08:25:28.315Z,15.80
2018-11-29T08:26:32.377Z,17.40
2018-11-29T08:27:36.542Z,15.18
2018-11-29T08:28:40.628Z,15.98
2018-11-29T08:29:44.789Z,14.85
2018-11-29T08:30:48.937Z,16.62
2018-11-29T08:31:53.207Z,12.93
2018-11-29T08:32:57.589Z,23.35
2018-11-29T08:34:01.608Z,17.32
2018-11-29T08:35:08.233Z,13.65
2018-11-29T08:36:12.482Z,12.93
2018-11-29T08:37:16.662Z,12.78
2018-11-29T08:38:20.858Z,15.05
2018-11-29T08:39:24.950Z,14.20
2018-11-29T08:40:29.062Z,17.12
2018-11-29T08:41:33.150Z,16.82
2018-11-29T08:42:37.299Z,13.88
2018-11-29T08:43:41.341Z,12.15
2018-11-29T08:44:45.557Z,15.15
2018-11-29T08:45:49.721Z,18.05
2018-11-29T08:46:53.888Z,14.85
2018-11-29T08:47:57.971Z,16.00
2018-11-29T08:49:02.175Z,15.95
2018-11-29T08:50:12.291Z,15.28
2018-11-29T08:51:16.433Z,21.33
2018-11-29T08:52:20.566Z,13.68
2018-11-29T08:53:24.596Z,13.98
2018-11-29T08:54:28.668Z,17.27
2018-11-29T08:55:32.958Z,14.58
2018-11-29T08:56:37.009Z,15.20
2018-11-29T08:57:41.163Z,16.50
2018-11-29T08:58:45.269Z,14.70
2018-11-29T08:59:49.433Z,14.58
2018-11-29T09:00:53.473Z,12.53
2018-11-29T09:01:57.489Z,17.98
2018-11-29T09:03:01.548Z,17.27
2018-11-29T09:04:06.126Z,13.22
2018-11-29T09:05:11.167Z,10.25
2018-11-29T09:06:15.234Z,9.90
2018-11-29T09:07:19.232Z,15.60
2018-11-29T09:08:23.297Z,11.22
2018-11-29T09:09:27.509Z,17.50
2018-11-29T09:10:31.983Z,12.55
2018-11-29T09:11:35.949Z,15.48
2018-11-29T09:12:43.068Z,14.20
2018-11-29T09:13:47.137Z,18.65
2018-11-29T09:14:51.190Z,13.88
2018-11-29T09:15:55.313Z,13.32
2018-11-29T09:16:59.438Z,11.95
2018-11-29T09:18:04.241Z,17.17
2018-11-29T09:19:08.311Z,18.55
2018-11-29T09:20:14.401Z,18.27
2018-11-29T09:21:18.508Z,17.07
2018-11-29T09:22:22.686Z,13.25
2018-11-29T09:23:26.749Z,14.53
2018-11-29T09:24:31.092Z,16.05
2018-11-29T09:25:35.225Z,11.30
2018-11-29T09:26:39.321Z,16.80
2018-11-29T09:27:43.748Z,11.22
2018-11-29T09:28:47.825Z,19.65
2018-11-29T09:29:51.902Z,14.10
2018-11-29T09:30:55.972Z,12.95
2018-11-29T09:32:00.166Z,14.68
2018-11-29T09:33:04.281Z,12.00
2018-11-29T09:34:08.469Z,19.57
2018-11-29T09:35:12.678Z,12.50
2018-11-29T09:36:16.981Z,17.92
2018-11-29T09:37:21.173Z,14.05
2018-11-29T09:38:25.183Z,17.62
2018-11-29T09:39:29.297Z,14.45
2018-11-29T09:40:33.525Z,19.32
2018-11-29T09:41:37.964Z,13.10
2018-11-29T09:42:42.429Z,12.43
2018-11-29T09:43:49.574Z,17.62
2018-11-29T09:44:53.667Z,21.50
2018-11-29T09:46:00.888Z,19.73
2018-11-29T09:47:04.975Z,16.52
2018-11-29T09:48:09.122Z,17.02
2018-11-29T09:49:13.233Z,13.55
2018-11-29T09:50:17.846Z,22.02
2018-11-29T09:51:21.898Z,13.03
2018-11-29T09:52:26.000Z,14.38
2018-11-29T09:53:30.087Z,13.40
2018-11-29T09:54:34.209Z,13.10
2018-11-29T09:55:39.868Z,21.65
2018-11-29T09:56:47.132Z,17.85
2018-11-29T09:57:55.284Z,15.38
2018-11-29T09:59:02.125Z,14.95
2018-11-29T10:00:15.159Z,18.62
2018-11-29T10:01:20.537Z,12.47
2018-11-29T10:02:24.588Z,20.80
2018-11-29T10:03:28.811Z,17.45
2018-11-29T10:04:32.950Z,15.65
2018-11-29T10:05:37.210Z,16.15
2018-11-29T10:06:41.313Z,11.80
2018-11-29T10:07:45.398Z,20.35
2018-11-29T10:08:56.073Z,16.85
2018-11-29T10:10:00.293Z,16.95
2018-11-29T10:11:04.689Z,16.65
2018-11-29T10:12:09.121Z,16.77
2018-11-29T10:13:13.303Z,19.62
2018-11-29T10:14:17.588Z,20.77
2018-11-29T10:15:21.878Z,19.10
2018-11-29T10:16:26.034Z,22.07
2018-11-29T10:17:30.237Z,22.98
2018-11-29T10:18:34.437Z,16.73
2018-11-29T10:19:38.518Z,20.48
2018-11-29T10:20:43.680Z,16.80
2018-11-29T10:21:53.053Z,17.37
2018-11-29T10:22:57.229Z,14.60
2018-11-29T10:24:01.537Z,19.73
2018-11-29T10:25:08.420Z,19.80
2018-11-29T10:26:12.669Z,14.10
2018-11-29T10:27:16.867Z,20.75
2018-11-29T10:28:21.473Z,16.57
2018-11-29T10:29:25.953Z,19.70
2018-11-29T10:30:35.153Z,16.90
2018-11-29T10:31:39.402Z,18.87
2018-11-29T10:32:43.599Z,14.00
2018-11-29T10:33:47.723Z,20.35
2018-11-29T10:34:51.712Z,17.05
2018-11-29T10:35:58.837Z,18.35
2018-11-29T10:37:02.930Z,21.23
2018-11-29T10:38:07.210Z,16.48
2018-11-29T10:39:11.400Z,18.75
2018-11-29T10:40:15.701Z,16.05
2018-11-29T10:41:21.027Z,18.05
2018-11-29T10:42:25.234Z,19.05
2018-11-29T10:43:29.343Z,15.98
2018-11-29T10:44:33.417Z,14.73
2018-11-29T10:45:37.493Z,14.05
2018-11-29T10:46:41.657Z,14.85
2018-11-29T10:47:52.200Z,16.97
2018-11-29T10:48:51.385Z,17.92
2018-11-29T10:49:55.610Z,15.05
2018-11-29T10:50:59.741Z,14.78
2018-11-29T10:52:04.251Z,20.55
2018-11-29T10:53:09.542Z,24.63
2018-11-29T10:54:16.817Z,15.03
2018-11-29T10:55:19.074Z,17.00
2018-11-29T10:56:23.262Z,13.30
2018-11-29T10:57:27.415Z,15.53
2018-11-29T10:58:31.892Z,14.18
2018-11-29T10:59:35.989Z,14.47
2018-11-29T11:00:45.286Z,17.45
2018-11-29T11:01:54.686Z,16.67
2018-11-29T11:03:08.117Z,17.48
2018-11-29T11:04:12.430Z,12.85
2018-11-29T11:05:16.787Z,14.05
2018-11-29T11:06:21.219Z,14.75
2018-11-29T11:07:25.426Z,14.53
2018-11-29T11:08:29.609Z,10.48
2018-11-29T11:09:33.814Z,12.98
2018-11-29T11:10:38.903Z,11.95
2018-11-29T11:11:43.101Z,16.12
2018-11-29T11:12:47.370Z,18.70
2018-11-29T11:13:51.581Z,17.42
2018-11-29T11:14:55.780Z,13.55
2018-11-29T11:15:59.886Z,18.20
2018-11-29T11:17:04.044Z,20.30
2018-11-29T11:18:09.268Z,20.08
2018-11-29T11:19:13.416Z,16.60
2018-11-29T11:20:17.606Z,17.65
2018-11-29T11:21:21.785Z,18.92
2018-11-29T11:22:25.984Z,12.37
2018-11-29T11:23:30.218Z,20.60
2018-11-29T11:24:34.407Z,20.80
2018-11-29T11:25:38.664Z,15.90
2018-11-29T11:26:42.845Z,17.17
2018-11-29T11:27:47.071Z,20.20
2018-11-29T11:28:51.307Z,17.05
2018-11-29T11:29:55.494Z,19.48
2018-11-29T11:30:59.673Z,17.82
2018-11-29T11:32:03.900Z,18.30
2018-11-29T11:33:08.130Z,18.42
2018-11-29T11:34:12.533Z,13.83
2018-11-29T11:35:16.762Z,13.35
2018-11-29T11:36:20.955Z,15.45
2018-11-29T11:37:25.058Z,16.07
2018-11-29T11:38:34.369Z,14.28
2018-11-29T11:39:38.560Z,15.20
2018-11-29T11:40:42.882Z,15.65
2018-11-29T11:41:47.075Z,15.68
2018-11-29T11:42:51.288Z,15.75
2018-11-29T11:43:56.100Z,18.12
2018-11-29T11:45:00.443Z,17.12
2018-11-29T11:46:04.595Z,19.02
2018-11-29T11:47:08.934Z,15.95
2018-11-29T11:48:13.229Z,21.85
2018-11-29T11:49:17.290Z,19.05
2018-11-29T11:50:24.499Z,16.82
2018-11-29T11:51:28.697Z,20.35
2018-11-29T11:52:33.564Z,14.30
2018-11-29T11:53:37.550Z,21.02
2018-11-29T11:54:41.446Z,16.95
2018-11-29T11:55:45.687Z,15.72
2018-11-29T11:56:49.830Z,21.35
2018-11-29T11:57:54.153Z,14.10
2018-11-29T11:58:58.429Z,16.00
2018-11-29T12:00:07.662Z,19.55
2018-11-29T12:01:11.862Z,18.50
2018-11-29T12:02:16.101Z,21.25
2018-11-29T12:03:20.169Z,15.15
2018-11-29T12:04:24.419Z,19.17
2018-11-29T12:05:28.654Z,14.98
2018-11-29T12:06:33.013Z,14.75
2018-11-29T12:07:37.382Z,20.00
2018-11-29T12:08:41.623Z,20.23
2018-11-29T12:09:45.761Z,14.15
2018-11-29T12:10:49.939Z,16.67
2018-11-29T12:11:54.069Z,16.80
2018-11-29T12:12:58.265Z,16.52
2018-11-29T12:14:02.540Z,18.70
2018-11-29T12:15:09.182Z,11.15
2018-11-29T12:16:13.323Z,13.50
2018-11-29T12:17:17.515Z,15.75
2018-11-29T12:18:21.717Z,19.90
2018-11-29T12:19:25.969Z,15.65
2018-11-29T12:20:30.172Z,19.90
2018-11-29T12:21:34.334Z,17.73
2018-11-29T12:22:38.489Z,17.23
2018-11-29T12:23:42.645Z,15.40
2018-11-29T12:24:46.888Z,14.78
2018-11-29T12:25:51.006Z,20.90
2018-11-29T12:26:55.120Z,19.75
2018-11-29T12:27:59.346Z,18.95
2018-11-29T12:29:03.478Z,11.03
2018-11-29T12:30:11.852Z,22.07
2018-11-29T12:31:16.089Z,15.35
2018-11-29T12:32:20.423Z,22.60
2018-11-29T12:33:24.650Z,14.47
2018-11-29T12:34:28.689Z,14.90
2018-11-29T12:35:33.029Z,16.90
2018-11-29T12:36:37.188Z,19.30
2018-11-29T12:37:41.375Z,14.63
2018-11-29T12:38:45.537Z,21.10
2018-11-29T12:39:49.783Z,21.15
2018-11-29T12:40:59.019Z,17.98
2018-11-29T12:42:03.214Z,18.70
2018-11-29T12:43:07.685Z,16.52
2018-11-29T12:44:11.923Z,16.82
2018-11-29T12:45:16.161Z,16.62
2018-11-29T12:46:21.574Z,21.75
2018-11-29T12:47:24.416Z,13.45
2018-11-29T12:48:28.599Z,14.63
2018-11-29T12:49:32.761Z,13.15
2018-11-29T12:50:39.042Z,21.52
2018-11-29T12:51:49.178Z,15.40
2018-11-29T12:52:53.415Z,17.12
2018-11-29T12:53:57.675Z,14.28
2018-11-29T12:55:01.962Z,18.57
2018-11-29T12:56:06.140Z,17.77
2018-11-29T12:57:10.392Z,19.57
2018-11-29T12:58:14.570Z,18.30
2018-11-29T12:59:18.737Z,14.70
2018-11-29T13:00:24.706Z,21.17
2018-11-29T13:01:31.669Z,17.40
2018-11-29T13:02:36.030Z,14.87
2018-11-29T13:03:40.103Z,12.90
2018-11-29T13:04:44.320Z,15.55
2018-11-29T13:17:20.623Z,15.65
2018-11-29T13:18:24.805Z,14.07
2018-11-29T13:19:29.033Z,18.40
2018-11-29T13:20:33.166Z,16.42
2018-11-29T13:21:37.490Z,15.75
2018-11-29T13:22:41.798Z,19.70
2018-11-29T13:23:46.053Z,17.30
2018-11-29T13:24:51.508Z,17.42
2018-11-29T13:25:55.978Z,23.30
2018-11-29T13:27:00.142Z,26.65
2018-11-29T13:28:04.554Z,15.90
2018-11-29T13:29:08.758Z,17.62
2018-11-29T13:30:18.381Z,16.95
2018-11-29T13:31:22.669Z,24.40
2018-11-29T13:32:26.877Z,17.32
2018-11-29T13:33:31.158Z,16.20
2018-11-29T13:34:35.342Z,18.32
2018-11-29T13:35:39.546Z,17.15
2018-11-29T13:36:43.742Z,16.30
2018-11-29T13:37:58.901Z,16.37
2018-11-29T13:39:03.105Z,11.22
2018-11-29T13:40:10.698Z,19.30
2018-11-29T13:41:15.141Z,18.07
2018-11-29T13:42:19.427Z,10.30
2018-11-29T13:43:23.670Z,14.78
2018-11-29T13:44:27.918Z,16.23
2018-11-29T13:45:32.962Z,18.20
2018-11-29T13:46:37.226Z,13.40
2018-11-29T13:47:41.929Z,16.32
2018-11-29T13:48:46.092Z,13.08
2018-11-29T13:49:50.491Z,13.58
2018-11-29T13:50:54.567Z,18.27
2018-11-29T13:51:58.904Z,16.00
2018-11-29T13:53:04.338Z,18.37
2018-11-29T13:54:08.603Z,19.90
2018-11-29T13:55:13.846Z,15.38
2018-11-29T13:56:18.058Z,13.83
2018-11-29T13:57:22.300Z,20.02
2018-11-29T13:58:26.464Z,18.17
2018-11-29T13:59:30.666Z,22.05
2018-11-29T14:00:34.898Z,16.07
2018-11-29T14:01:39.064Z,20.97
2018-11-29T14:02:46.941Z,22.65
2018-11-29T14:03:47.749Z,18.05
2018-11-29T14:04:51.846Z,19.48